sensor_id;sensor_type;location;lat;lon;timestamp;temperature;humidity
9881;DHT22;4979;51.014;6.678;2022-12-07T00:01:12;5.20;99.90
9881;DHT22;4979;51.014;6.678;2022-12-07T00:03:39;5.20;99.90
9881;DHT22;4979;51.014;6.678;2022-12-07T00:06:06;5.20;99.90
9881;DHT22;4979;51.014;6.678;2022-12-07T00:08:34;5.20;99.90
9881;DHT22;4979;51.014;6.678;2022-12-07T00:11:08;5.20;99.90
9881;DHT22;4979;51.014;6.678;2022-12-07T00:13:34;5.30;99.90
9881;DHT22;4979;51.014;6.678;2022-12-07T00:18:27;5.20;99.90
9881;DHT22;4979;51.014;6.678;2022-12-07T00:20:53;5.30;99.90
9881;DHT22;4979;51.014;6.678;2022-12-07T00:23:23;5.30;99.90
9881;DHT22;4979;51.014;6.678;2022-12-07T00:25:49;5.20;99.90
9881;DHT22;4979;51.014;6.678;2022-12-07T00:28:14;5.10;99.90
9881;DHT22;4979;51.014;6.678;2022-12-07T00:30:40;5.20;99.90
9881;DHT22;4979;51.014;6.678;2022-12-07T00:33:06;5.20;99.90
9881;DHT22;4979;51.014;6.678;2022-12-07T00:35:31;5.20;99.90
9881;DHT22;4979;51.014;6.678;2022-12-07T00:37:57;5.20;99.90
9881;DHT22;4979;51.014;6.678;2022-12-07T00:40:22;5.20;99.90
9881;DHT22;4979;51.014;6.678;2022-12-07T00:42:48;5.10;99.90
9881;DHT22;4979;51.014;6.678;2022-12-07T00:45:13;5.20;99.90
9881;DHT22;4979;51.014;6.678;2022-12-07T00:47:39;5.10;99.90
9881;DHT22;4979;51.014;6.678;2022-12-07T00:50:05;5.10;99.90
9881;DHT22;4979;51.014;6.678;2022-12-07T00:52:30;5.10;99.90
9881;DHT22;4979;51.014;6.678;2022-12-07T00:54:56;5.20;99.90
9881;DHT22;4979;51.014;6.678;2022-12-07T00:57:21;5.10;99.90
9881;DHT22;4979;51.014;6.678;2022-12-07T00:59:48;5.10;99.90
9881;DHT22;4979;51.014;6.678;2022-12-07T01:02:13;5.20;99.90
9881;DHT22;4979;51.014;6.678;2022-12-07T01:04:39;5.20;99.90
9881;DHT22;4979;51.014;6.678;2022-12-07T01:07:04;5.20;99.90
9881;DHT22;4979;51.014;6.678;2022-12-07T01:09:30;5.30;99.90
9881;DHT22;4979;51.014;6.678;2022-12-07T01:11:55;5.20;99.90
9881;DHT22;4979;51.014;6.678;2022-12-07T01:14:21;5.20;99.90
9881;DHT22;4979;51.014;6.678;2022-12-07T01:16:46;5.20;99.90
9881;DHT22;4979;51.014;6.678;2022-12-07T01:19:12;5.30;99.90
9881;DHT22;4979;51.014;6.678;2022-12-07T01:21:38;5.20;99.90
9881;DHT22;4979;51.014;6.678;2022-12-07T01:24:05;5.30;99.90
9881;DHT22;4979;51.014;6.678;2022-12-07T01:26:32;5.30;99.90
9881;DHT22;4979;51.014;6.678;2022-12-07T01:28:57;5.30;99.90
9881;DHT22;4979;51.014;6.678;2022-12-07T01:31:25;5.30;99.90
9881;DHT22;4979;51.014;6.678;2022-12-07T01:33:57;5.20;99.90
9881;DHT22;4979;51.014;6.678;2022-12-07T01:36:28;5.30;99.90
9881;DHT22;4979;51.014;6.678;2022-12-07T01:39:00;5.30;99.90
9881;DHT22;4979;51.014;6.678;2022-12-07T01:41:28;5.30;99.90
9881;DHT22;4979;51.014;6.678;2022-12-07T01:44:17;5.20;99.90
9881;DHT22;4979;51.014;6.678;2022-12-07T01:46:54;5.30;99.90
9881;DHT22;4979;51.014;6.678;2022-12-07T01:49:42;5.30;99.90
9881;DHT22;4979;51.014;6.678;2022-12-07T01:54:37;5.30;99.90
9881;DHT22;4979;51.014;6.678;2022-12-07T01:57:03;5.40;99.90
9881;DHT22;4979;51.014;6.678;2022-12-07T01:59:30;5.30;99.90
9881;DHT22;4979;51.014;6.678;2022-12-07T02:01:56;5.40;99.90
9881;DHT22;4979;51.014;6.678;2022-12-07T02:04:22;5.30;99.90
9881;DHT22;4979;51.014;6.678;2022-12-07T02:06:48;5.30;99.90
9881;DHT22;4979;51.014;6.678;2022-12-07T02:09:15;5.30;99.90
9881;DHT22;4979;51.014;6.678;2022-12-07T02:11:41;5.30;99.90
9881;DHT22;4979;51.014;6.678;2022-12-07T02:14:06;5.30;99.90
9881;DHT22;4979;51.014;6.678;2022-12-07T02:16:59;5.20;99.90
9881;DHT22;4979;51.014;6.678;2022-12-07T02:28:09;5.30;99.90
9881;DHT22;4979;51.014;6.678;2022-12-07T02:30:43;5.20;99.90
9881;DHT22;4979;51.014;6.678;2022-12-07T02:33:17;5.20;99.90
9881;DHT22;4979;51.014;6.678;2022-12-07T02:35:45;5.20;99.90
9881;DHT22;4979;51.014;6.678;2022-12-07T02:41:00;5.20;99.90
9881;DHT22;4979;51.014;6.678;2022-12-07T02:43:34;5.30;99.90
9881;DHT22;4979;51.014;6.678;2022-12-07T02:46:14;5.20;99.90
9881;DHT22;4979;51.014;6.678;2022-12-07T02:48:41;5.10;99.90
9881;DHT22;4979;51.014;6.678;2022-12-07T02:51:08;5.20;99.90
9881;DHT22;4979;51.014;6.678;2022-12-07T02:53:36;5.20;99.90
9881;DHT22;4979;51.014;6.678;2022-12-07T02:56:15;5.20;99.90
9881;DHT22;4979;51.014;6.678;2022-12-07T03:13:02;5.20;99.90
9881;DHT22;4979;51.014;6.678;2022-12-07T03:17:55;5.20;99.90
9881;DHT22;4979;51.014;6.678;2022-12-07T03:20:23;5.20;99.90
9881;DHT22;4979;51.014;6.678;2022-12-07T03:22:51;5.10;99.90
9881;DHT22;4979;51.014;6.678;2022-12-07T03:25:18;5.20;99.90
9881;DHT22;4979;51.014;6.678;2022-12-07T03:30:18;4.10;99.90
9881;DHT22;4979;51.014;6.678;2022-12-07T03:33:04;5.20;99.90
9881;DHT22;4979;51.014;6.678;2022-12-07T03:35:41;5.20;99.90
9881;DHT22;4979;51.014;6.678;2022-12-07T03:38:21;5.20;99.90
9881;DHT22;4979;51.014;6.678;2022-12-07T03:43:18;5.30;99.90
9881;DHT22;4979;51.014;6.678;2022-12-07T03:45:58;5.10;99.90
9881;DHT22;4979;51.014;6.678;2022-12-07T03:48:40;5.20;99.90
9881;DHT22;4979;51.014;6.678;2022-12-07T03:51:14;5.10;99.90
9881;DHT22;4979;51.014;6.678;2022-12-07T03:53:48;5.20;99.90
9881;DHT22;4979;51.014;6.678;2022-12-07T03:56:16;5.20;99.90
9881;DHT22;4979;51.014;6.678;2022-12-07T03:58:43;5.20;99.90
9881;DHT22;4979;51.014;6.678;2022-12-07T04:01:08;5.10;99.90
9881;DHT22;4979;51.014;6.678;2022-12-07T04:03:34;5.10;99.90
9881;DHT22;4979;51.014;6.678;2022-12-07T04:06:00;5.10;99.90
9881;DHT22;4979;51.014;6.678;2022-12-07T04:08:26;5.20;99.90
9881;DHT22;4979;51.014;6.678;2022-12-07T04:10:51;5.10;99.90
9881;DHT22;4979;51.014;6.678;2022-12-07T04:13:17;5.10;99.90
9881;DHT22;4979;51.014;6.678;2022-12-07T04:15:43;5.20;99.90
9881;DHT22;4979;51.014;6.678;2022-12-07T04:18:08;5.10;99.90
9881;DHT22;4979;51.014;6.678;2022-12-07T04:20:34;5.10;99.90
9881;DHT22;4979;51.014;6.678;2022-12-07T04:22:59;5.20;99.90
9881;DHT22;4979;51.014;6.678;2022-12-07T04:25:25;5.20;99.90
9881;DHT22;4979;51.014;6.678;2022-12-07T04:27:50;5.10;99.90
9881;DHT22;4979;51.014;6.678;2022-12-07T04:30:16;5.10;99.90
9881;DHT22;4979;51.014;6.678;2022-12-07T04:32:41;5.10;99.90
9881;DHT22;4979;51.014;6.678;2022-12-07T04:35:08;5.10;99.90
9881;DHT22;4979;51.014;6.678;2022-12-07T04:37:33;5.00;99.90
9881;DHT22;4979;51.014;6.678;2022-12-07T04:39:59;5.00;99.90
9881;DHT22;4979;51.014;6.678;2022-12-07T04:42:24;4.90;99.90
9881;DHT22;4979;51.014;6.678;2022-12-07T04:44:50;5.00;99.90
9881;DHT22;4979;51.014;6.678;2022-12-07T04:47:16;5.00;99.90
9881;DHT22;4979;51.014;6.678;2022-12-07T04:49:42;4.90;99.90
9881;DHT22;4979;51.014;6.678;2022-12-07T04:52:07;4.90;99.90
9881;DHT22;4979;51.014;6.678;2022-12-07T04:54:33;4.90;99.90
9881;DHT22;4979;51.014;6.678;2022-12-07T04:56:59;5.00;99.90
9881;DHT22;4979;51.014;6.678;2022-12-07T04:59:24;4.90;99.90
9881;DHT22;4979;51.014;6.678;2022-12-07T05:01:50;5.00;99.90
9881;DHT22;4979;51.014;6.678;2022-12-07T05:04:15;4.90;99.90
9881;DHT22;4979;51.014;6.678;2022-12-07T05:06:41;4.90;99.90
9881;DHT22;4979;51.014;6.678;2022-12-07T05:09:07;4.90;99.90
9881;DHT22;4979;51.014;6.678;2022-12-07T05:11:33;4.90;99.90
9881;DHT22;4979;51.014;6.678;2022-12-07T05:14:18;4.80;99.90
9881;DHT22;4979;51.014;6.678;2022-12-07T05:16:45;4.90;99.90
9881;DHT22;4979;51.014;6.678;2022-12-07T05:19:11;5.00;99.90
9881;DHT22;4979;51.014;6.678;2022-12-07T05:21:37;4.90;99.90
9881;DHT22;4979;51.014;6.678;2022-12-07T05:24:04;4.90;99.90
9881;DHT22;4979;51.014;6.678;2022-12-07T05:26:30;5.00;99.90
9881;DHT22;4979;51.014;6.678;2022-12-07T05:28:56;4.90;99.90
9881;DHT22;4979;51.014;6.678;2022-12-07T05:31:23;5.00;99.90
9881;DHT22;4979;51.014;6.678;2022-12-07T05:33:50;4.90;99.90
9881;DHT22;4979;51.014;6.678;2022-12-07T05:36:15;4.90;99.90
9881;DHT22;4979;51.014;6.678;2022-12-07T05:38:41;4.90;99.90
9881;DHT22;4979;51.014;6.678;2022-12-07T05:41:08;5.00;99.90
9881;DHT22;4979;51.014;6.678;2022-12-07T05:43:56;4.90;99.90
9881;DHT22;4979;51.014;6.678;2022-12-07T05:46:21;4.90;99.90
9881;DHT22;4979;51.014;6.678;2022-12-07T05:48:47;4.80;99.90
9881;DHT22;4979;51.014;6.678;2022-12-07T05:51:12;4.90;99.90
9881;DHT22;4979;51.014;6.678;2022-12-07T05:53:38;4.90;99.90
9881;DHT22;4979;51.014;6.678;2022-12-07T05:56:03;4.90;99.90
9881;DHT22;4979;51.014;6.678;2022-12-07T05:58:29;4.80;99.90
9881;DHT22;4979;51.014;6.678;2022-12-07T06:01:13;4.80;99.90
9881;DHT22;4979;51.014;6.678;2022-12-07T06:03:39;4.70;99.90
9881;DHT22;4979;51.014;6.678;2022-12-07T06:06:05;4.70;99.90
9881;DHT22;4979;51.014;6.678;2022-12-07T06:08:30;4.70;99.90
9881;DHT22;4979;51.014;6.678;2022-12-07T06:10:56;4.80;99.90
9881;DHT22;4979;51.014;6.678;2022-12-07T06:13:40;4.80;99.90
9881;DHT22;4979;51.014;6.678;2022-12-07T06:16:06;4.70;99.90
9881;DHT22;4979;51.014;6.678;2022-12-07T06:18:31;4.70;99.90
9881;DHT22;4979;51.014;6.678;2022-12-07T06:20:57;4.80;99.90
9881;DHT22;4979;51.014;6.678;2022-12-07T06:23:22;4.80;99.90
9881;DHT22;4979;51.014;6.678;2022-12-07T06:25:48;4.80;99.90
9881;DHT22;4979;51.014;6.678;2022-12-07T06:28:13;4.80;99.90
9881;DHT22;4979;51.014;6.678;2022-12-07T06:30:39;4.70;99.90
9881;DHT22;4979;51.014;6.678;2022-12-07T06:33:04;4.80;99.90
9881;DHT22;4979;51.014;6.678;2022-12-07T06:35:32;4.80;99.90
9881;DHT22;4979;51.014;6.678;2022-12-07T06:37:58;4.80;99.90
9881;DHT22;4979;51.014;6.678;2022-12-07T06:40:23;4.80;99.90
9881;DHT22;4979;51.014;6.678;2022-12-07T06:42:49;4.80;99.90
9881;DHT22;4979;51.014;6.678;2022-12-07T06:45:14;4.70;99.90
9881;DHT22;4979;51.014;6.678;2022-12-07T06:47:40;4.90;99.90
9881;DHT22;4979;51.014;6.678;2022-12-07T06:50:06;4.90;99.90
9881;DHT22;4979;51.014;6.678;2022-12-07T06:52:33;4.80;99.90
9881;DHT22;4979;51.014;6.678;2022-12-07T06:54:58;4.80;99.90
9881;DHT22;4979;51.014;6.678;2022-12-07T06:57:24;4.80;99.90
9881;DHT22;4979;51.014;6.678;2022-12-07T06:59:50;4.90;99.90
9881;DHT22;4979;51.014;6.678;2022-12-07T07:02:16;4.80;99.90
9881;DHT22;4979;51.014;6.678;2022-12-07T07:04:42;4.90;99.90
9881;DHT22;4979;51.014;6.678;2022-12-07T07:07:07;4.80;99.90
9881;DHT22;4979;51.014;6.678;2022-12-07T07:09:33;4.80;99.90
9881;DHT22;4979;51.014;6.678;2022-12-07T07:11:59;4.90;99.90
9881;DHT22;4979;51.014;6.678;2022-12-07T07:14:24;4.70;99.90
9881;DHT22;4979;51.014;6.678;2022-12-07T07:16:50;4.80;99.90
9881;DHT22;4979;51.014;6.678;2022-12-07T07:19:15;4.70;99.90
9881;DHT22;4979;51.014;6.678;2022-12-07T07:21:41;4.80;99.90
9881;DHT22;4979;51.014;6.678;2022-12-07T07:24:07;4.70;99.90
9881;DHT22;4979;51.014;6.678;2022-12-07T07:26:32;4.80;99.90
9881;DHT22;4979;51.014;6.678;2022-12-07T07:28:58;4.70;99.90
9881;DHT22;4979;51.014;6.678;2022-12-07T07:31:23;4.70;99.90
9881;DHT22;4979;51.014;6.678;2022-12-07T07:33:49;4.60;99.90
9881;DHT22;4979;51.014;6.678;2022-12-07T07:36:14;4.60;99.90
9881;DHT22;4979;51.014;6.678;2022-12-07T07:38:40;4.60;99.90
9881;DHT22;4979;51.014;6.678;2022-12-07T07:41:05;4.60;99.90
9881;DHT22;4979;51.014;6.678;2022-12-07T07:43:32;4.60;99.90
9881;DHT22;4979;51.014;6.678;2022-12-07T07:45:57;4.70;99.90
9881;DHT22;4979;51.014;6.678;2022-12-07T07:48:23;4.60;99.90
9881;DHT22;4979;51.014;6.678;2022-12-07T07:50:50;4.70;99.90
9881;DHT22;4979;51.014;6.678;2022-12-07T07:53:16;4.70;99.90
9881;DHT22;4979;51.014;6.678;2022-12-07T07:55:49;4.60;99.90
9881;DHT22;4979;51.014;6.678;2022-12-07T07:58:15;4.60;99.90
9881;DHT22;4979;51.014;6.678;2022-12-07T08:00:41;4.60;99.90
9881;DHT22;4979;51.014;6.678;2022-12-07T08:03:07;4.80;99.90
9881;DHT22;4979;51.014;6.678;2022-12-07T08:05:32;4.80;99.90
9881;DHT22;4979;51.014;6.678;2022-12-07T08:07:58;4.80;99.90
9881;DHT22;4979;51.014;6.678;2022-12-07T08:10:23;4.80;99.90
9881;DHT22;4979;51.014;6.678;2022-12-07T08:12:49;4.80;99.90
9881;DHT22;4979;51.014;6.678;2022-12-07T08:15:33;4.90;99.90
9881;DHT22;4979;51.014;6.678;2022-12-07T08:17:59;4.80;99.90
9881;DHT22;4979;51.014;6.678;2022-12-07T08:20:24;4.90;99.90
9881;DHT22;4979;51.014;6.678;2022-12-07T08:22:50;4.80;99.90
9881;DHT22;4979;51.014;6.678;2022-12-07T08:25:16;4.80;99.90
9881;DHT22;4979;51.014;6.678;2022-12-07T08:27:42;4.90;99.90
9881;DHT22;4979;51.014;6.678;2022-12-07T08:30:07;4.90;99.90
9881;DHT22;4979;51.014;6.678;2022-12-07T08:32:33;4.90;99.90
9881;DHT22;4979;51.014;6.678;2022-12-07T08:34:59;5.00;99.90
9881;DHT22;4979;51.014;6.678;2022-12-07T08:37:24;4.90;99.90
9881;DHT22;4979;51.014;6.678;2022-12-07T08:39:50;5.00;99.90
9881;DHT22;4979;51.014;6.678;2022-12-07T08:42:15;4.90;99.90
9881;DHT22;4979;51.014;6.678;2022-12-07T08:44:41;4.90;99.90
9881;DHT22;4979;51.014;6.678;2022-12-07T08:47:07;5.00;99.90
9881;DHT22;4979;51.014;6.678;2022-12-07T08:49:37;5.00;99.90
9881;DHT22;4979;51.014;6.678;2022-12-07T08:52:05;5.10;99.90
9881;DHT22;4979;51.014;6.678;2022-12-07T08:54:33;5.00;99.90
9881;DHT22;4979;51.014;6.678;2022-12-07T08:56:59;5.10;99.90
9881;DHT22;4979;51.014;6.678;2022-12-07T08:59:26;5.20;99.90
9881;DHT22;4979;51.014;6.678;2022-12-07T09:02:03;5.10;99.90
9881;DHT22;4979;51.014;6.678;2022-12-07T09:04:29;5.10;99.90
9881;DHT22;4979;51.014;6.678;2022-12-07T09:06:55;5.20;99.90
9881;DHT22;4979;51.014;6.678;2022-12-07T09:09:21;5.30;99.90
9881;DHT22;4979;51.014;6.678;2022-12-07T09:11:47;5.20;99.90
9881;DHT22;4979;51.014;6.678;2022-12-07T09:14:13;5.20;99.90
9881;DHT22;4979;51.014;6.678;2022-12-07T09:16:38;5.30;99.90
9881;DHT22;4979;51.014;6.678;2022-12-07T09:19:04;5.40;99.90
9881;DHT22;4979;51.014;6.678;2022-12-07T09:21:30;5.30;99.90
9881;DHT22;4979;51.014;6.678;2022-12-07T09:23:55;5.30;99.90
9881;DHT22;4979;51.014;6.678;2022-12-07T09:26:21;5.50;99.90
9881;DHT22;4979;51.014;6.678;2022-12-07T09:28:47;5.40;99.90
9881;DHT22;4979;51.014;6.678;2022-12-07T09:31:12;5.50;99.90
9881;DHT22;4979;51.014;6.678;2022-12-07T09:33:38;5.50;99.90
9881;DHT22;4979;51.014;6.678;2022-12-07T09:36:04;5.40;99.90
9881;DHT22;4979;51.014;6.678;2022-12-07T09:38:30;5.60;99.90
9881;DHT22;4979;51.014;6.678;2022-12-07T09:40:57;5.60;99.90
9881;DHT22;4979;51.014;6.678;2022-12-07T09:43:24;5.60;99.90
9881;DHT22;4979;51.014;6.678;2022-12-07T09:45:51;5.60;99.90
9881;DHT22;4979;51.014;6.678;2022-12-07T09:48:21;5.70;99.90
9881;DHT22;4979;51.014;6.678;2022-12-07T09:50:49;5.70;99.90
9881;DHT22;4979;51.014;6.678;2022-12-07T09:53:28;5.70;99.90
9881;DHT22;4979;51.014;6.678;2022-12-07T09:55:55;5.90;99.90
9881;DHT22;4979;51.014;6.678;2022-12-07T09:58:24;5.80;99.90
9881;DHT22;4979;51.014;6.678;2022-12-07T10:00:55;5.90;99.90
9881;DHT22;4979;51.014;6.678;2022-12-07T10:03:22;5.90;99.90
9881;DHT22;4979;51.014;6.678;2022-12-07T10:05:50;5.90;99.90
9881;DHT22;4979;51.014;6.678;2022-12-07T10:08:16;5.90;99.90
9881;DHT22;4979;51.014;6.678;2022-12-07T10:10:42;5.90;99.90
9881;DHT22;4979;51.014;6.678;2022-12-07T10:13:20;6.30;99.90
9881;DHT22;4979;51.014;6.678;2022-12-07T10:15:58;6.00;99.90
9881;DHT22;4979;51.014;6.678;2022-12-07T10:18:28;6.00;99.90
9881;DHT22;4979;51.014;6.678;2022-12-07T10:21:17;6.00;99.90
9881;DHT22;4979;51.014;6.678;2022-12-07T10:24:04;6.00;99.90
9881;DHT22;4979;51.014;6.678;2022-12-07T10:26:49;6.10;99.90
9881;DHT22;4979;51.014;6.678;2022-12-07T10:29:28;6.00;99.90
9881;DHT22;4979;51.014;6.678;2022-12-07T10:32:06;6.20;99.90
9881;DHT22;4979;51.014;6.678;2022-12-07T10:34:47;6.30;99.90
9881;DHT22;4979;51.014;6.678;2022-12-07T10:37:14;6.30;99.90
9881;DHT22;4979;51.014;6.678;2022-12-07T10:39:46;6.40;99.90
9881;DHT22;4979;51.014;6.678;2022-12-07T10:42:16;6.50;99.90
9881;DHT22;4979;51.014;6.678;2022-12-07T10:44:42;6.50;99.90
9881;DHT22;4979;51.014;6.678;2022-12-07T11:01:49;6.80;99.90
9881;DHT22;4979;51.014;6.678;2022-12-07T11:10:18;6.80;99.90
9881;DHT22;4979;51.014;6.678;2022-12-07T11:15:43;7.10;99.90
9881;DHT22;4979;51.014;6.678;2022-12-07T11:21:21;7.10;99.90
9881;DHT22;4979;51.014;6.678;2022-12-07T11:24:01;7.20;99.90
9881;DHT22;4979;51.014;6.678;2022-12-07T11:31:41;7.10;99.90
9881;DHT22;4979;51.014;6.678;2022-12-07T11:37:03;6.90;99.90
9881;DHT22;4979;51.014;6.678;2022-12-07T11:39:39;7.10;99.90
9881;DHT22;4979;51.014;6.678;2022-12-07T11:42:12;7.10;99.90
9881;DHT22;4979;51.014;6.678;2022-12-07T11:45:02;7.10;99.90
9881;DHT22;4979;51.014;6.678;2022-12-07T11:52:32;6.90;99.90
9881;DHT22;4979;51.014;6.678;2022-12-07T11:55:02;7.00;99.90
9881;DHT22;4979;51.014;6.678;2022-12-07T11:57:40;7.20;99.90
9881;DHT22;4979;51.014;6.678;2022-12-07T12:00:15;7.30;99.90
9881;DHT22;4979;51.014;6.678;2022-12-07T12:05:21;7.20;99.90
9881;DHT22;4979;51.014;6.678;2022-12-07T12:07:53;7.20;99.90
9881;DHT22;4979;51.014;6.678;2022-12-07T12:10:26;7.10;99.90
9881;DHT22;4979;51.014;6.678;2022-12-07T12:15:50;7.40;99.90
9881;DHT22;4979;51.014;6.678;2022-12-07T12:18:48;7.40;99.90
9881;DHT22;4979;51.014;6.678;2022-12-07T12:21:26;7.30;99.90
9881;DHT22;4979;51.014;6.678;2022-12-07T12:24:12;7.30;99.90
9881;DHT22;4979;51.014;6.678;2022-12-07T12:26:49;7.20;99.90
9881;DHT22;4979;51.014;6.678;2022-12-07T12:29:23;7.20;99.90
9881;DHT22;4979;51.014;6.678;2022-12-07T12:32:22;7.10;99.90
9881;DHT22;4979;51.014;6.678;2022-12-07T12:37:51;7.10;99.90
9881;DHT22;4979;51.014;6.678;2022-12-07T12:42:47;7.30;99.90
9881;DHT22;4979;51.014;6.678;2022-12-07T12:45:27;7.30;99.90
9881;DHT22;4979;51.014;6.678;2022-12-07T12:47:54;7.30;99.90
9881;DHT22;4979;51.014;6.678;2022-12-07T12:50:43;7.30;99.90
9881;DHT22;4979;51.014;6.678;2022-12-07T12:53:25;7.20;99.90
9881;DHT22;4979;51.014;6.678;2022-12-07T12:58:35;7.20;99.90
9881;DHT22;4979;51.014;6.678;2022-12-07T13:03:58;7.10;99.90
9881;DHT22;4979;51.014;6.678;2022-12-07T13:08:50;7.20;99.90
9881;DHT22;4979;51.014;6.678;2022-12-07T13:11:20;7.10;99.90
9881;DHT22;4979;51.014;6.678;2022-12-07T13:13:50;7.00;99.90
9881;DHT22;4979;51.014;6.678;2022-12-07T13:18:42;7.00;99.90
9881;DHT22;4979;51.014;6.678;2022-12-07T13:26:36;6.90;99.90
9881;DHT22;4979;51.014;6.678;2022-12-07T13:29:20;6.90;99.90
9881;DHT22;4979;51.014;6.678;2022-12-07T13:31:55;6.90;99.90
9881;DHT22;4979;51.014;6.678;2022-12-07T13:34:40;6.80;99.90
9881;DHT22;4979;51.014;6.678;2022-12-07T13:37:15;6.80;99.90
9881;DHT22;4979;51.014;6.678;2022-12-07T13:39:51;6.90;99.90
9881;DHT22;4979;51.014;6.678;2022-12-07T13:42:27;6.90;99.90
9881;DHT22;4979;51.014;6.678;2022-12-07T13:44:54;6.90;99.90
9881;DHT22;4979;51.014;6.678;2022-12-07T13:47:48;6.90;99.90
9881;DHT22;4979;51.014;6.678;2022-12-07T13:50:29;6.90;99.90
9881;DHT22;4979;51.014;6.678;2022-12-07T13:52:59;6.90;99.90
9881;DHT22;4979;51.014;6.678;2022-12-07T13:55:26;6.80;99.90
9881;DHT22;4979;51.014;6.678;2022-12-07T13:57:54;6.80;99.90
9881;DHT22;4979;51.014;6.678;2022-12-07T14:00:22;6.80;99.90
9881;DHT22;4979;51.014;6.678;2022-12-07T14:03:04;6.80;99.90
9881;DHT22;4979;51.014;6.678;2022-12-07T14:05:34;6.80;99.90
9881;DHT22;4979;51.014;6.678;2022-12-07T14:08:20;6.80;99.90
9881;DHT22;4979;51.014;6.678;2022-12-07T14:13:38;6.70;99.90
9881;DHT22;4979;51.014;6.678;2022-12-07T14:16:25;6.70;99.90
9881;DHT22;4979;51.014;6.678;2022-12-07T14:18:53;6.70;99.90
9881;DHT22;4979;51.014;6.678;2022-12-07T14:21:25;6.60;99.90
9881;DHT22;4979;51.014;6.678;2022-12-07T14:26:43;6.70;99.90
9881;DHT22;4979;51.014;6.678;2022-12-07T14:31:51;6.60;99.90
9881;DHT22;4979;51.014;6.678;2022-12-07T14:34:19;6.60;99.90
9881;DHT22;4979;51.014;6.678;2022-12-07T14:36:44;6.50;99.90
9881;DHT22;4979;51.014;6.678;2022-12-07T14:39:10;6.50;99.90
9881;DHT22;4979;51.014;6.678;2022-12-07T14:41:35;6.60;99.90
9881;DHT22;4979;51.014;6.678;2022-12-07T14:44:18;6.60;99.90
9881;DHT22;4979;51.014;6.678;2022-12-07T14:46:44;6.50;99.90
9881;DHT22;4979;51.014;6.678;2022-12-07T14:49:10;6.50;99.90
9881;DHT22;4979;51.014;6.678;2022-12-07T14:51:38;6.40;99.90
9881;DHT22;4979;51.014;6.678;2022-12-07T14:54:05;6.50;99.90
9881;DHT22;4979;51.014;6.678;2022-12-07T14:56:31;6.40;99.90
9881;DHT22;4979;51.014;6.678;2022-12-07T14:58:57;6.40;99.90
9881;DHT22;4979;51.014;6.678;2022-12-07T15:01:23;6.30;99.90
9881;DHT22;4979;51.014;6.678;2022-12-07T15:03:48;6.10;99.90
9881;DHT22;4979;51.014;6.678;2022-12-07T15:06:16;6.20;99.90
9881;DHT22;4979;51.014;6.678;2022-12-07T15:08:42;6.10;99.90
9881;DHT22;4979;51.014;6.678;2022-12-07T15:11:16;6.10;99.90
9881;DHT22;4979;51.014;6.678;2022-12-07T15:13:42;6.00;99.90
9881;DHT22;4979;51.014;6.678;2022-12-07T15:16:25;6.10;99.90
9881;DHT22;4979;51.014;6.678;2022-12-07T15:18:51;6.10;99.90
9881;DHT22;4979;51.014;6.678;2022-12-07T15:21:17;6.10;99.90
9881;DHT22;4979;51.014;6.678;2022-12-07T15:23:43;6.10;99.90
9881;DHT22;4979;51.014;6.678;2022-12-07T15:26:13;6.00;99.90
9881;DHT22;4979;51.014;6.678;2022-12-07T15:28:39;6.00;99.90
9881;DHT22;4979;51.014;6.678;2022-12-07T15:31:11;6.00;99.90
9881;DHT22;4979;51.014;6.678;2022-12-07T15:33:37;5.90;99.90
9881;DHT22;4979;51.014;6.678;2022-12-07T15:36:02;5.90;99.90
9881;DHT22;4979;51.014;6.678;2022-12-07T15:38:28;5.90;99.90
9881;DHT22;4979;51.014;6.678;2022-12-07T15:40:55;5.80;99.90
9881;DHT22;4979;51.014;6.678;2022-12-07T15:43:21;5.80;99.90
9881;DHT22;4979;51.014;6.678;2022-12-07T15:46:05;5.70;99.90
9881;DHT22;4979;51.014;6.678;2022-12-07T15:48:31;5.70;99.90
9881;DHT22;4979;51.014;6.678;2022-12-07T15:51:07;5.70;99.90
9881;DHT22;4979;51.014;6.678;2022-12-07T15:53:33;5.70;99.90
9881;DHT22;4979;51.014;6.678;2022-12-07T15:55:59;5.60;99.90
9881;DHT22;4979;51.014;6.678;2022-12-07T15:58:25;5.60;99.90
9881;DHT22;4979;51.014;6.678;2022-12-07T16:00:51;5.60;99.90
9881;DHT22;4979;51.014;6.678;2022-12-07T16:03:16;5.60;99.90
9881;DHT22;4979;51.014;6.678;2022-12-07T16:05:49;5.50;99.90
9881;DHT22;4979;51.014;6.678;2022-12-07T16:08:14;5.60;99.90
9881;DHT22;4979;51.014;6.678;2022-12-07T16:10:40;5.60;99.90
9881;DHT22;4979;51.014;6.678;2022-12-07T16:13:09;5.60;99.90
9881;DHT22;4979;51.014;6.678;2022-12-07T16:15:41;5.60;99.90
9881;DHT22;4979;51.014;6.678;2022-12-07T16:18:07;5.60;99.90
9881;DHT22;4979;51.014;6.678;2022-12-07T16:20:32;5.70;99.90
9881;DHT22;4979;51.014;6.678;2022-12-07T16:22:58;5.60;99.90
9881;DHT22;4979;51.014;6.678;2022-12-07T16:25:24;5.60;99.90
9881;DHT22;4979;51.014;6.678;2022-12-07T16:27:51;5.60;99.90
9881;DHT22;4979;51.014;6.678;2022-12-07T16:30:16;5.70;99.90
9881;DHT22;4979;51.014;6.678;2022-12-07T16:32:42;5.70;99.90
9881;DHT22;4979;51.014;6.678;2022-12-07T16:35:08;5.70;99.90
9881;DHT22;4979;51.014;6.678;2022-12-07T16:37:34;5.70;99.90
9881;DHT22;4979;51.014;6.678;2022-12-07T16:40:00;5.80;99.90
9881;DHT22;4979;51.014;6.678;2022-12-07T16:42:25;5.70;99.90
9881;DHT22;4979;51.014;6.678;2022-12-07T16:44:51;5.70;99.90
9881;DHT22;4979;51.014;6.678;2022-12-07T16:47:17;5.70;99.90
9881;DHT22;4979;51.014;6.678;2022-12-07T16:49:43;5.80;99.90
9881;DHT22;4979;51.014;6.678;2022-12-07T16:52:09;5.70;99.90
9881;DHT22;4979;51.014;6.678;2022-12-07T16:54:36;5.60;99.90
9881;DHT22;4979;51.014;6.678;2022-12-07T16:57:01;5.60;99.90
9881;DHT22;4979;51.014;6.678;2022-12-07T16:59:27;5.70;99.90
9881;DHT22;4979;51.014;6.678;2022-12-07T17:01:53;5.70;99.90
9881;DHT22;4979;51.014;6.678;2022-12-07T17:04:18;5.70;99.90
9881;DHT22;4979;51.014;6.678;2022-12-07T17:06:44;5.60;99.90
9881;DHT22;4979;51.014;6.678;2022-12-07T17:09:09;5.60;99.90
9881;DHT22;4979;51.014;6.678;2022-12-07T17:11:37;5.50;99.90
9881;DHT22;4979;51.014;6.678;2022-12-07T17:14:03;5.60;99.90
9881;DHT22;4979;51.014;6.678;2022-12-07T17:16:47;5.50;99.90
9881;DHT22;4979;51.014;6.678;2022-12-07T17:19:14;5.50;99.90
9881;DHT22;4979;51.014;6.678;2022-12-07T17:21:41;5.50;99.90
9881;DHT22;4979;51.014;6.678;2022-12-07T17:24:09;5.50;99.90
9881;DHT22;4979;51.014;6.678;2022-12-07T17:26:35;5.50;99.90
9881;DHT22;4979;51.014;6.678;2022-12-07T17:29:02;5.50;99.90
9881;DHT22;4979;51.014;6.678;2022-12-07T17:31:28;5.50;99.90
9881;DHT22;4979;51.014;6.678;2022-12-07T17:33:53;5.50;99.90
9881;DHT22;4979;51.014;6.678;2022-12-07T17:36:22;5.40;99.90
9881;DHT22;4979;51.014;6.678;2022-12-07T17:38:48;5.50;99.90
9881;DHT22;4979;51.014;6.678;2022-12-07T17:41:22;5.40;99.90
9881;DHT22;4979;51.014;6.678;2022-12-07T17:44:09;5.40;99.90
9881;DHT22;4979;51.014;6.678;2022-12-07T17:46:36;5.40;99.90
9881;DHT22;4979;51.014;6.678;2022-12-07T17:49:03;5.30;99.90
9881;DHT22;4979;51.014;6.678;2022-12-07T17:51:29;5.30;99.90
9881;DHT22;4979;51.014;6.678;2022-12-07T17:54:13;5.30;99.90
9881;DHT22;4979;51.014;6.678;2022-12-07T17:56:39;5.20;99.90
9881;DHT22;4979;51.014;6.678;2022-12-07T17:59:05;5.20;99.90
9881;DHT22;4979;51.014;6.678;2022-12-07T18:01:31;5.20;99.90
9881;DHT22;4979;51.014;6.678;2022-12-07T18:03:57;5.30;99.90
9881;DHT22;4979;51.014;6.678;2022-12-07T18:06:23;5.20;99.90
9881;DHT22;4979;51.014;6.678;2022-12-07T18:08:49;5.20;99.90
9881;DHT22;4979;51.014;6.678;2022-12-07T18:11:14;5.30;99.90
9881;DHT22;4979;51.014;6.678;2022-12-07T18:13:40;5.30;99.90
9881;DHT22;4979;51.014;6.678;2022-12-07T18:16:26;5.20;99.90
9881;DHT22;4979;51.014;6.678;2022-12-07T18:18:53;5.30;99.90
9881;DHT22;4979;51.014;6.678;2022-12-07T18:21:20;5.30;99.90